createdAt,value
2022-11-22T00:00:34.118Z,7.362976074
2022-11-22T00:01:34.605Z,7.362976074
2022-11-22T00:02:35.075Z,7.373046875
2022-11-22T00:03:35.403Z,7.362976074
2022-11-22T00:04:35.857Z,7.393188477
2022-11-22T00:05:36.335Z,7.393188477
2022-11-22T00:06:37.294Z,7.393188477
2022-11-22T00:07:37.894Z,7.423400879
2022-11-22T00:08:38.830Z,7.423400879
2022-11-22T00:09:39.251Z,7.453613281
2022-11-22T00:10:39.728Z,7.473754883
2022-11-22T00:11:40.198Z,7.473754883
2022-11-22T00:12:40.645Z,7.503967285
2022-11-22T00:13:41.075Z,7.503967285
2022-11-22T00:14:41.609Z,7.514038086
2022-11-22T00:15:42.103Z,7.514038086
2022-11-22T00:16:43.325Z,7.514038086
2022-11-22T00:17:43.781Z,7.544250488
2022-11-22T00:18:44.285Z,7.544250488
2022-11-22T00:19:44.746Z,7.554321289
2022-11-22T00:20:45.201Z,7.574462891
2022-11-22T00:21:45.652Z,7.584533691
2022-11-22T00:22:46.070Z,7.574462891
2022-11-22T00:23:46.546Z,7.584533691
2022-11-22T00:24:46.998Z,7.624816895
2022-11-22T00:26:18.591Z,7.634887695
2022-11-22T00:27:19.054Z,7.624816895
2022-11-22T00:28:19.603Z,7.624816895
2022-11-22T00:29:20.579Z,7.624816895
2022-11-22T00:30:21.042Z,7.634887695
2022-11-22T00:31:21.515Z,7.655029297
2022-11-22T00:32:21.939Z,7.655029297
2022-11-22T00:33:22.695Z,7.655029297
2022-11-22T00:34:23.083Z,7.665100098
2022-11-22T00:35:23.507Z,7.665100098
2022-11-22T00:36:24.638Z,7.665100098
2022-11-22T00:37:25.132Z,7.665100098
2022-11-22T00:38:26.437Z,7.665100098
2022-11-22T00:39:27.162Z,7.655029297
2022-11-22T00:40:27.293Z,7.665100098
2022-11-22T00:41:27.718Z,7.655029297
2022-11-22T00:42:28.183Z,7.665100098
2022-11-22T00:43:28.683Z,7.665100098
2022-11-22T00:44:29.172Z,7.665100098
2022-11-22T00:45:29.666Z,7.665100098
2022-11-22T00:46:31.088Z,7.685241699
2022-11-22T00:47:31.541Z,7.685241699
2022-11-22T00:48:32.013Z,7.6953125
2022-11-22T00:49:32.727Z,7.6953125
2022-11-22T00:50:32.948Z,7.685241699
2022-11-22T00:51:33.431Z,7.6953125
2022-11-22T00:52:34.812Z,7.685241699
2022-11-22T00:53:35.302Z,7.685241699
2022-11-22T00:54:35.773Z,7.685241699
2022-11-22T00:55:36.299Z,7.6953125
2022-11-22T00:56:37.595Z,7.6953125
2022-11-22T00:57:38.089Z,7.705383301
2022-11-22T00:58:38.611Z,7.6953125
2022-11-22T00:59:39.033Z,7.725524902
2022-11-22T01:00:39.583Z,7.705383301
2022-11-22T01:01:40.053Z,7.705383301
2022-11-22T01:02:40.470Z,7.725524902
2022-11-22T01:03:40.949Z,7.725524902
2022-11-22T01:04:41.410Z,7.735595703
2022-11-22T01:05:41.850Z,7.725524902
2022-11-22T01:06:43.097Z,7.725524902
2022-11-22T01:07:43.643Z,7.735595703
2022-11-22T01:08:44.888Z,7.725524902
2022-11-22T01:09:45.412Z,7.705383301
2022-11-22T01:10:45.864Z,7.705383301
2022-11-22T01:11:46.305Z,7.725524902
2022-11-22T01:13:18.089Z,7.735595703
2022-11-22T01:14:18.622Z,7.725524902
2022-11-22T01:15:19.032Z,7.755737305
2022-11-22T01:16:19.495Z,7.735595703
2022-11-22T01:17:20.804Z,7.755737305
2022-11-22T01:18:21.264Z,7.735595703
2022-11-22T01:19:22.580Z,7.755737305
2022-11-22T01:20:22.969Z,7.735595703
2022-11-22T01:21:23.425Z,7.755737305
2022-11-22T01:22:23.858Z,7.755737305
2022-11-22T01:23:24.387Z,7.755737305
2022-11-22T01:24:24.975Z,7.765808105
2022-11-22T01:25:25.435Z,7.765808105
2022-11-22T01:26:25.886Z,7.765808105
2022-11-22T01:27:27.311Z,7.785949707
2022-11-22T01:28:27.750Z,7.785949707
2022-11-22T01:29:28.782Z,7.806091309
2022-11-22T01:30:28.736Z,7.785949707
2022-11-22T01:31:29.226Z,7.806091309
2022-11-22T01:32:29.710Z,7.806091309
2022-11-22T01:33:31.097Z,7.806091309
2022-11-22T01:34:31.563Z,7.806091309
2022-11-22T01:35:32.007Z,7.806091309
2022-11-22T01:36:33.102Z,7.806091309
2022-11-22T01:37:33.628Z,7.816162109
2022-11-22T01:38:34.134Z,7.806091309
2022-11-22T01:39:34.635Z,7.785949707
2022-11-22T01:40:35.029Z,7.735595703
2022-11-22T01:41:35.509Z,7.665100098
2022-11-22T01:42:36.016Z,7.604675293
2022-11-22T01:43:37.366Z,7.624816895
2022-11-22T01:44:37.956Z,7.604675293
2022-11-22T01:45:38.266Z,7.554321289
2022-11-22T01:46:39.596Z,7.554321289
2022-11-22T01:47:40.192Z,7.554321289
2022-11-22T01:48:40.710Z,7.554321289
2022-11-22T01:49:41.244Z,7.544250488
2022-11-22T01:50:41.714Z,7.544250488
2022-11-22T01:51:42.145Z,7.544250488
2022-11-22T01:52:42.577Z,7.544250488
2022-11-22T01:53:43.229Z,7.524108887
2022-11-22T01:54:43.750Z,7.524108887
2022-11-22T01:55:44.206Z,7.503967285
2022-11-22T01:56:45.595Z,7.503967285
2022-11-22T01:57:46.441Z,7.44354248
2022-11-22T01:59:17.323Z,7.423400879
2022-11-22T02:00:17.840Z,7.413330078
2022-11-22T02:01:18.358Z,7.423400879
2022-11-22T02:02:18.766Z,7.393188477
2022-11-22T02:03:19.230Z,7.342834473
2022-11-22T02:04:19.718Z,7.332763672
2022-11-22T02:05:20.410Z,7.342834473
2022-11-22T02:06:20.761Z,7.342834473
2022-11-22T02:07:21.892Z,7.362976074
2022-11-22T02:08:23.079Z,7.373046875
2022-11-22T02:09:23.557Z,7.362976074
2022-11-22T02:10:24.127Z,7.332763672
2022-11-22T02:11:27.397Z,7.292480469
2022-11-22T02:12:25.109Z,7.242126465
2022-11-22T02:13:25.595Z,7.191772461
2022-11-22T02:14:26.038Z,7.191772461
2022-11-22T02:15:26.531Z,7.191772461
2022-11-22T02:16:27.019Z,7.18170166
2022-11-22T02:17:28.374Z,7.161560059
2022-11-22T02:18:28.894Z,7.161560059
2022-11-22T02:19:29.611Z,7.121276855
2022-11-22T02:20:29.825Z,7.151489258
2022-11-22T02:21:30.246Z,7.161560059
2022-11-22T02:22:30.771Z,7.18170166
2022-11-22T02:23:31.271Z,7.161560059
2022-11-22T02:24:31.772Z,7.121276855
2022-11-22T02:25:32.355Z,7.111206055
2022-11-22T02:26:32.650Z,7.091064453
2022-11-22T02:27:33.890Z,7.070922852
2022-11-22T02:28:34.380Z,7.05078125
2022-11-22T02:29:34.878Z,7.070922852
2022-11-22T02:30:35.492Z,7.070922852
2022-11-22T02:31:35.828Z,7.010498047
2022-11-22T02:32:36.283Z,7.000427246
2022-11-22T02:33:36.788Z,6.970214844
2022-11-22T02:34:37.263Z,6.940002441
2022-11-22T02:35:37.775Z,6.940002441
2022-11-22T02:36:38.279Z,6.960144043
2022-11-22T02:37:38.670Z,7.000427246
2022-11-22T02:38:39.124Z,7.040710449
2022-11-22T02:39:39.690Z,7.070922852
2022-11-22T02:40:40.210Z,7.091064453
2022-11-22T02:41:40.761Z,7.141418457
2022-11-22T02:42:41.236Z,7.080993652
2022-11-22T02:43:41.701Z,7.111206055
2022-11-22T02:44:42.217Z,7.111206055
2022-11-22T02:45:42.739Z,7.091064453
2022-11-22T02:46:43.222Z,7.121276855
2022-11-22T02:47:44.339Z,7.141418457
2022-11-22T02:48:44.845Z,7.141418457
2022-11-22T02:49:45.295Z,7.161560059
2022-11-22T02:51:16.270Z,7.18170166
2022-11-22T02:52:16.771Z,7.232055664
2022-11-22T02:53:17.320Z,7.242126465
2022-11-22T02:54:17.777Z,7.292480469
2022-11-22T02:55:18.223Z,7.272338867
2022-11-22T02:56:18.710Z,7.272338867
2022-11-22T02:57:20.124Z,7.242126465
2022-11-22T02:58:20.625Z,7.242126465
2022-11-22T02:59:21.055Z,7.232055664
2022-11-22T03:00:21.468Z,7.242126465
2022-11-22T03:01:21.932Z,7.242126465
2022-11-22T03:02:22.673Z,7.242126465
2022-11-22T03:03:23.167Z,7.262268066
2022-11-22T03:04:23.646Z,7.242126465
2022-11-22T03:05:24.123Z,7.211914063
2022-11-22T03:06:24.623Z,7.242126465
2022-11-22T03:07:25.683Z,7.232055664
2022-11-22T03:08:27.086Z,7.242126465
2022-11-22T03:09:27.733Z,7.262268066
2022-11-22T03:10:28.028Z,7.272338867
2022-11-22T03:11:28.490Z,7.272338867
2022-11-22T03:12:28.893Z,7.292480469
2022-11-22T03:13:29.494Z,7.30255127
2022-11-22T03:14:30.006Z,7.30255127
2022-11-22T03:15:30.515Z,7.30255127
2022-11-22T03:16:30.997Z,7.322692871
2022-11-22T03:17:32.105Z,7.332763672
2022-11-22T03:18:32.575Z,7.292480469
2022-11-22T03:19:33.354Z,7.272338867
2022-11-22T03:20:33.583Z,7.272338867
2022-11-22T03:21:34.210Z,7.262268066
2022-11-22T03:22:34.532Z,7.232055664
2022-11-22T03:23:34.944Z,7.18170166
2022-11-22T03:24:35.393Z,7.161560059
2022-11-22T03:25:35.980Z,7.141418457
2022-11-22T03:26:36.457Z,7.091064453
2022-11-22T03:27:37.590Z,6.990356445
2022-11-22T03:28:38.041Z,6.940002441
2022-11-22T03:29:38.461Z,6.960144043
2022-11-22T03:30:39.029Z,6.899719238
2022-11-22T03:31:39.508Z,6.809082031
2022-11-22T03:32:39.961Z,6.758728027
2022-11-22T03:33:40.442Z,6.778869629
2022-11-22T03:34:40.844Z,6.718444824
2022-11-22T03:35:41.308Z,6.718444824
2022-11-22T03:36:41.839Z,6.748657227
2022-11-22T03:37:43.125Z,6.758728027
2022-11-22T03:38:43.598Z,6.78894043
2022-11-22T03:39:44.069Z,6.758728027
2022-11-22T03:40:44.509Z,6.778869629
2022-11-22T03:42:20.943Z,6.809082031
2022-11-22T03:43:16.602Z,6.819152832
2022-11-22T03:44:17.194Z,6.859436035
2022-11-22T03:45:17.772Z,6.899719238
2022-11-22T03:46:18.212Z,6.909790039
2022-11-22T03:47:19.615Z,6.929931641
2022-11-22T03:48:20.088Z,6.960144043
2022-11-22T03:49:21.125Z,6.960144043
2022-11-22T03:50:21.660Z,6.960144043
2022-11-22T03:51:22.115Z,6.970214844
2022-11-22T03:52:22.753Z,6.970214844
2022-11-22T03:53:23.291Z,6.970214844
2022-11-22T03:54:23.799Z,6.960144043
2022-11-22T03:55:24.282Z,6.970214844
2022-11-22T03:56:24.755Z,6.970214844
2022-11-22T03:57:26.215Z,6.990356445
2022-11-22T03:58:26.588Z,6.990356445
2022-11-22T03:59:27.231Z,6.970214844
2022-11-22T04:00:27.612Z,6.970214844
2022-11-22T04:01:28.161Z,6.990356445
2022-11-22T04:02:28.620Z,6.970214844
2022-11-22T04:03:29.152Z,6.970214844
2022-11-22T04:04:29.593Z,6.990356445
2022-11-22T04:05:30.178Z,6.990356445
2022-11-22T04:06:30.730Z,6.990356445
2022-11-22T04:07:32.165Z,7.010498047
2022-11-22T04:08:32.666Z,7.000427246
2022-11-22T04:09:34.155Z,6.970214844
2022-11-22T04:10:34.289Z,6.909790039
2022-11-22T04:11:34.808Z,6.929931641
2022-11-22T04:12:35.326Z,6.909790039
2022-11-22T04:13:36.368Z,6.909790039
2022-11-22T04:14:36.836Z,6.909790039
2022-11-22T04:15:37.322Z,6.899719238
2022-11-22T04:16:37.830Z,6.869506836
2022-11-22T04:17:39.138Z,6.889648438
2022-11-22T04:18:39.560Z,6.899719238
2022-11-22T04:19:40.070Z,6.889648438
2022-11-22T04:20:40.481Z,6.869506836
2022-11-22T04:21:40.900Z,6.869506836
2022-11-22T04:22:41.542Z,6.889648438
2022-11-22T04:23:41.931Z,6.899719238
2022-11-22T04:24:42.359Z,6.899719238
2022-11-22T04:25:42.797Z,6.889648438
2022-11-22T04:26:43.252Z,6.869506836
2022-11-22T04:27:44.621Z,6.899719238
2022-11-22T04:29:15.443Z,6.899719238
2022-11-22T04:30:20.276Z,6.889648438
2022-11-22T04:31:16.373Z,6.899719238
2022-11-22T04:32:16.829Z,6.899719238
2022-11-22T04:33:17.382Z,6.889648438
2022-11-22T04:34:17.876Z,6.829223633
2022-11-22T04:35:18.391Z,6.829223633
2022-11-22T04:36:18.852Z,6.869506836
2022-11-22T04:37:19.305Z,6.889648438
2022-11-22T04:38:20.379Z,6.869506836
2022-11-22T04:39:21.657Z,6.829223633
2022-11-22T04:40:22.116Z,6.859436035
2022-11-22T04:41:22.760Z,6.869506836
2022-11-22T04:42:23.242Z,6.829223633
2022-11-22T04:43:23.732Z,6.859436035
2022-11-22T04:44:24.155Z,6.869506836
2022-11-22T04:45:24.627Z,6.859436035
2022-11-22T04:46:25.090Z,6.869506836
2022-11-22T04:47:25.620Z,6.819152832
2022-11-22T04:48:26.863Z,6.819152832
2022-11-22T04:49:27.685Z,6.809082031
2022-11-22T04:50:27.815Z,6.809082031
2022-11-22T04:51:28.353Z,6.809082031
2022-11-22T04:52:28.834Z,6.78894043
2022-11-22T04:53:30.131Z,6.778869629
2022-11-22T04:54:30.578Z,6.758728027
2022-11-22T04:55:30.991Z,6.78894043
2022-11-22T04:56:31.420Z,6.809082031
2022-11-22T04:57:32.001Z,6.829223633
2022-11-22T04:58:33.370Z,6.859436035
2022-11-22T04:59:33.842Z,6.859436035
2022-11-22T05:00:34.294Z,6.819152832
2022-11-22T05:01:34.784Z,6.829223633
2022-11-22T05:02:35.189Z,6.829223633
2022-11-22T05:03:35.739Z,6.889648438
2022-11-22T05:04:36.200Z,6.889648438
2022-11-22T05:05:36.730Z,6.859436035
2022-11-22T05:06:37.167Z,6.819152832
2022-11-22T05:07:37.682Z,6.809082031
2022-11-22T05:08:38.956Z,6.819152832
2022-11-22T05:09:39.471Z,6.778869629
2022-11-22T05:10:39.989Z,6.748657227
2022-11-22T05:11:40.424Z,6.758728027
2022-11-22T05:12:40.840Z,6.778869629
2022-11-22T05:13:41.960Z,6.728515625
2022-11-22T05:14:42.369Z,6.718444824
2022-11-22T05:15:42.836Z,6.708374023
2022-11-22T05:16:43.324Z,6.728515625
2022-11-22T05:18:15.088Z,6.728515625
2022-11-22T05:19:15.542Z,6.758728027
2022-11-22T05:20:16.039Z,6.778869629
2022-11-22T05:21:16.496Z,6.819152832
2022-11-22T05:22:17.052Z,6.819152832
2022-11-22T05:23:17.553Z,6.778869629
2022-11-22T05:24:17.993Z,6.78894043
2022-11-22T05:25:24.039Z,6.778869629
2022-11-22T05:26:18.985Z,6.778869629
2022-11-22T05:27:19.502Z,6.748657227
2022-11-22T05:28:21.598Z,6.748657227
2022-11-22T05:29:22.053Z,6.758728027
2022-11-22T05:30:22.777Z,6.778869629
2022-11-22T05:31:23.497Z,6.778869629
2022-11-22T05:32:23.836Z,6.78894043
2022-11-22T05:33:24.351Z,6.728515625
2022-11-22T05:34:24.856Z,6.728515625
2022-11-22T05:35:25.290Z,6.728515625
2022-11-22T05:36:26.584Z,6.758728027
2022-11-22T05:37:27.104Z,6.728515625
2022-11-22T05:38:28.609Z,6.637878418
2022-11-22T05:39:29.650Z,6.637878418
2022-11-22T05:40:29.635Z,6.678161621
2022-11-22T05:41:30.105Z,6.678161621
2022-11-22T05:42:30.580Z,6.678161621
2022-11-22T05:43:32.131Z,6.688232422
2022-11-22T05:44:32.690Z,6.688232422
2022-11-22T05:45:33.159Z,6.718444824
2022-11-22T05:46:33.595Z,6.708374023
2022-11-22T05:47:34.032Z,6.708374023
2022-11-22T05:48:35.106Z,6.708374023
2022-11-22T05:49:35.650Z,6.718444824
2022-11-22T05:50:36.129Z,6.708374023
2022-11-22T05:51:36.590Z,6.647949219
2022-11-22T05:52:37.045Z,6.647949219
2022-11-22T05:53:37.481Z,6.627807617
2022-11-22T05:54:38.029Z,6.627807617
2022-11-22T05:55:38.482Z,6.647949219
2022-11-22T05:56:38.989Z,6.678161621
2022-11-22T05:57:39.413Z,6.688232422
2022-11-22T05:58:40.804Z,6.688232422
2022-11-22T05:59:44.158Z,6.647949219
2022-11-22T06:00:42.427Z,6.678161621
2022-11-22T06:01:43.000Z,6.678161621
2022-11-22T06:03:13.858Z,6.708374023
2022-11-22T06:04:14.296Z,6.688232422
2022-11-22T06:05:14.802Z,6.688232422
